Аэропорт: Внуково. Москва

ICAO: UUWW

METAR:
2019/01/21 23:00
UUWW 212300Z 29005MPS 9999 SCT030 M14/M17 Q1011 R24/450342 NOSIG
METAR:
2019/01/21 21:21
TAF UUWW 211959Z 2121/2221 28005MPS 9000 BKN011 TXM13/2121Z TNM16/2221Z 
      TEMPO 2121/2206 3100 -SHSN SCT005 SCT015CB 
      BECMG 2218/2219 20003MPS